createdAt,value
2018-11-14T00:00:08.766Z,2.90
2018-11-14T00:02:36.956Z,3.30
2018-11-14T00:05:06.394Z,2.40
2018-11-14T00:07:34.633Z,3.23
2018-11-14T00:10:04.103Z,2.80
2018-11-14T00:12:32.421Z,2.77
2018-11-14T00:15:00.576Z,2.53
2018-11-14T00:17:28.756Z,2.93
2018-11-14T00:19:56.936Z,3.27
2018-11-14T00:22:25.083Z,3.53
2018-11-14T00:24:54.389Z,2.93
2018-11-14T00:27:22.258Z,3.60
2018-11-14T00:29:51.042Z,3.60
2018-11-14T00:32:19.168Z,4.17
2018-11-14T00:34:47.455Z,3.20
2018-11-14T00:37:15.572Z,4.23
2018-11-14T00:39:44.050Z,3.37
2018-11-14T00:42:12.233Z,3.63
2018-11-14T00:44:40.396Z,3.93
2018-11-14T00:47:08.656Z,3.40
2018-11-14T00:49:36.824Z,3.60
2018-11-14T00:52:06.689Z,3.77
2018-11-14T00:54:34.853Z,3.87
2018-11-14T00:57:06.854Z,3.60
2018-11-14T00:59:34.996Z,4.67
2018-11-14T01:02:07.192Z,4.00
2018-11-14T01:04:35.497Z,4.40
2018-11-14T01:07:05.000Z,4.23
2018-11-14T01:09:33.180Z,4.00
2018-11-14T01:12:05.665Z,4.10
2018-11-14T01:14:34.183Z,4.80
2018-11-14T01:17:06.226Z,3.90
2018-11-14T01:19:34.412Z,5.00
2018-11-14T01:22:03.371Z,4.53
2018-11-14T01:24:31.481Z,4.63
2018-11-14T01:26:59.692Z,4.33
2018-11-14T01:29:28.765Z,4.23
2018-11-14T01:31:56.937Z,5.20
2018-11-14T01:34:25.092Z,4.30
2018-11-14T01:36:53.262Z,4.63
2018-11-14T01:39:21.411Z,4.50
2018-11-14T01:41:50.501Z,5.10
2018-11-14T01:44:18.709Z,4.70
2018-11-14T01:46:46.864Z,4.07
2018-11-14T01:49:15.066Z,5.57
2018-11-14T01:51:43.230Z,4.50
2018-11-14T01:54:11.385Z,3.57
2018-11-14T01:56:39.525Z,4.37
2018-11-14T01:59:07.648Z,5.63
2018-11-14T02:01:35.839Z,4.80
2018-11-14T02:04:05.006Z,4.20
2018-11-14T02:06:33.152Z,4.00
2018-11-14T02:09:02.161Z,5.03
2018-11-14T02:11:30.304Z,5.03
2018-11-14T02:13:58.460Z,3.90
2018-11-14T02:16:26.820Z,4.13
2018-11-14T02:18:54.988Z,4.10
2018-11-14T02:21:23.178Z,3.70
2018-11-14T02:23:51.328Z,3.40
2018-11-14T02:26:19.485Z,3.60
2018-11-14T02:28:47.668Z,3.73
2018-11-14T02:31:15.828Z,4.30
2018-11-14T02:33:44.057Z,4.30
2018-11-14T02:36:12.253Z,4.30
2018-11-14T02:38:40.516Z,4.07
2018-11-14T02:41:09.122Z,3.03
2018-11-14T02:43:37.293Z,3.50
2018-11-14T02:46:05.797Z,4.37
2018-11-14T02:48:34.004Z,3.70
2018-11-14T02:51:13.781Z,4.20
2018-11-14T02:53:42.940Z,4.00
2018-11-14T02:56:11.737Z,3.90
2018-11-14T02:58:39.853Z,4.60
2018-11-14T03:01:08.316Z,4.30
2018-11-14T03:03:36.466Z,4.07
2018-11-14T03:06:05.121Z,4.37
2018-11-14T03:08:33.292Z,4.50
2018-11-14T03:11:05.651Z,4.03
2018-11-14T03:13:33.809Z,3.50
2018-11-14T03:16:07.876Z,4.53
2018-11-14T03:18:36.041Z,4.20
2018-11-14T03:21:05.045Z,3.83
2018-11-14T03:23:33.172Z,4.73
2018-11-14T03:26:02.882Z,3.60
2018-11-14T03:28:31.024Z,3.90
2018-11-14T03:30:59.211Z,3.30
2018-11-14T03:33:28.005Z,4.57
2018-11-14T03:36:07.662Z,4.73
2018-11-14T03:38:35.808Z,3.77
2018-11-14T03:41:05.005Z,3.83
2018-11-14T03:43:33.146Z,4.73
2018-11-14T03:46:04.660Z,5.00
2018-11-14T03:48:32.809Z,4.70
2018-11-14T03:51:06.638Z,4.40
2018-11-14T03:53:34.808Z,5.70
2018-11-14T03:56:08.041Z,6.90
2018-11-14T03:58:36.313Z,6.63
2018-11-14T04:01:08.676Z,6.90
2018-11-14T04:03:36.848Z,5.73
2018-11-14T04:06:06.778Z,5.50
2018-11-14T04:08:34.993Z,5.37
2018-11-14T04:11:07.905Z,5.20
2018-11-14T04:13:37.017Z,5.13
2018-11-14T04:16:05.552Z,6.60
2018-11-14T04:18:33.792Z,5.50
2018-11-14T04:21:06.358Z,6.03
2018-11-14T04:23:39.014Z,7.30
2018-11-14T04:26:07.133Z,6.67
2018-11-14T04:28:35.454Z,6.17
2018-11-14T04:31:10.085Z,5.57
2018-11-14T04:33:38.707Z,5.20
2018-11-14T04:36:06.853Z,4.63
2018-11-14T04:38:34.988Z,5.47
2018-11-14T04:41:04.964Z,4.47
2018-11-14T04:43:33.153Z,5.63
2018-11-14T04:48:34.833Z,4.27
2018-11-14T04:51:05.714Z,3.90
2018-11-14T04:53:33.889Z,4.27
2018-11-14T04:56:04.857Z,5.10
2018-11-14T04:58:33.012Z,5.37
2018-11-14T05:01:05.834Z,5.00
2018-11-14T05:03:33.941Z,5.37
2018-11-14T05:06:07.149Z,5.17
2018-11-14T05:08:35.290Z,4.67
2018-11-14T05:11:03.889Z,5.40
2018-11-14T05:13:32.166Z,4.93
2018-11-14T05:16:00.742Z,4.77
2018-11-14T05:18:29.012Z,3.83
2018-11-14T05:20:57.157Z,3.37
2018-11-14T05:23:25.349Z,4.13
2018-11-14T05:25:53.498Z,5.47
2018-11-14T05:28:22.658Z,5.67
2018-11-14T05:30:50.826Z,5.63
2018-11-14T05:33:18.948Z,5.53
2018-11-14T05:35:47.085Z,5.30
2018-11-14T05:38:15.257Z,6.97
2018-11-14T05:40:43.445Z,6.17
2018-11-14T05:43:11.606Z,5.40
2018-11-14T05:45:39.879Z,5.30
2018-11-14T05:48:08.839Z,5.20
2018-11-14T05:50:37.241Z,5.47
2018-11-14T05:53:05.423Z,5.63
2018-11-14T05:55:34.103Z,5.23
2018-11-14T05:58:04.633Z,4.20
2018-11-14T06:00:32.864Z,3.70
2018-11-14T06:03:04.769Z,3.53
2018-11-14T06:05:32.929Z,8.93
2018-11-14T06:08:03.780Z,2.87
2018-11-14T06:10:31.932Z,2.63
2018-11-14T06:13:00.125Z,2.40
2018-11-14T06:15:28.694Z,1.90
2018-11-14T06:17:57.810Z,3.37
2018-11-14T06:20:25.996Z,3.10
2018-11-14T06:22:54.293Z,3.73
2018-11-14T06:25:26.424Z,3.20
2018-11-14T06:27:55.620Z,3.20
2018-11-14T06:30:24.745Z,3.00
2018-11-14T06:32:53.433Z,3.43
2018-11-14T06:35:21.788Z,3.90
2018-11-14T06:37:50.689Z,5.57
2018-11-14T06:40:19.090Z,6.50
2018-11-14T06:42:47.281Z,5.70
2018-11-14T06:45:17.708Z,6.73
2018-11-14T06:47:47.965Z,5.70
2018-11-14T06:50:16.396Z,6.77
2018-11-14T06:52:45.497Z,3.97
2018-11-14T06:55:14.801Z,3.90
2018-11-14T06:57:43.258Z,3.40
2018-11-14T07:00:17.789Z,3.90
2018-11-14T07:02:46.916Z,4.70
2018-11-14T07:05:17.266Z,5.33
2018-11-14T07:07:45.580Z,4.80
2018-11-14T07:10:15.540Z,9.20
2018-11-14T07:12:43.949Z,10.13
2018-11-14T07:15:19.116Z,11.83
2018-11-14T07:17:48.250Z,10.43
2018-11-14T07:20:20.995Z,9.80
2018-11-14T07:22:49.336Z,9.17
2018-11-14T07:25:17.512Z,12.20
2018-11-14T07:27:45.924Z,8.73
2018-11-14T07:30:24.629Z,9.70
2018-11-14T07:32:54.251Z,7.57
2018-11-14T07:35:23.010Z,11.23
2018-11-14T07:38:58.905Z,9.90
2018-11-14T07:41:31.581Z,9.70
2018-11-14T07:43:59.872Z,11.93
2018-11-14T07:46:29.052Z,9.37
2018-11-14T07:48:57.449Z,9.47
2018-11-14T07:51:25.503Z,6.20
2018-11-14T07:53:53.608Z,7.63
2018-11-14T07:56:22.734Z,6.90
2018-11-14T07:58:50.876Z,8.97
2018-11-14T08:01:19.078Z,12.53
2018-11-14T08:03:47.732Z,24.47
2018-11-14T08:06:15.981Z,17.03
2018-11-14T08:08:44.686Z,19.23
2018-11-14T08:11:12.828Z,19.37
2018-11-14T08:13:43.593Z,9.47
2018-11-14T08:16:12.577Z,35.80
2018-11-14T08:18:40.790Z,4.33
2018-11-14T08:21:09.033Z,4.80
2018-11-14T08:23:37.173Z,8.83
2018-11-14T08:26:05.310Z,9.37
2018-11-14T08:28:33.626Z,8.90
2018-11-14T08:31:03.741Z,19.17
2018-11-14T08:33:31.916Z,26.37
2018-11-14T08:36:00.100Z,24.73
2018-11-14T08:38:28.253Z,15.93
2018-11-14T08:40:56.433Z,5.80
2018-11-14T08:43:24.627Z,10.37
2018-11-14T08:45:53.772Z,5.70
2018-11-14T08:48:22.032Z,14.97
2018-11-14T08:50:50.200Z,6.43
2018-11-14T08:53:18.349Z,6.60
2018-11-14T08:55:46.461Z,8.03
2018-11-14T08:58:14.632Z,5.37
2018-11-14T09:00:42.873Z,4.93
2018-11-14T09:03:12.304Z,6.30
2018-11-14T09:05:40.440Z,4.83
2018-11-14T09:08:08.624Z,4.37
2018-11-14T09:10:36.809Z,5.07
2018-11-14T09:13:05.060Z,4.20
2018-11-14T09:15:34.052Z,4.70
2018-11-14T09:18:06.966Z,5.33
2018-11-14T09:20:35.104Z,5.37
2018-11-14T09:23:04.080Z,4.03
2018-11-14T09:25:33.415Z,5.10
2018-11-14T09:28:03.008Z,4.07
2018-11-14T09:30:31.144Z,4.80
2018-11-14T09:32:59.414Z,4.83
2018-11-14T09:35:28.157Z,4.83
2018-11-14T09:37:57.452Z,4.37
2018-11-14T09:40:27.744Z,5.03
2018-11-14T09:42:56.385Z,4.33
2018-11-14T09:45:25.780Z,5.90
2018-11-14T09:47:54.945Z,6.00
2018-11-14T09:50:25.221Z,5.43
2018-11-14T09:52:56.961Z,5.80
2018-11-14T09:55:25.281Z,5.23
2018-11-14T09:57:53.472Z,4.87
2018-11-14T10:00:24.220Z,4.73
2018-11-14T10:02:54.194Z,4.20
2018-11-14T10:05:23.346Z,4.60
2018-11-14T10:07:51.531Z,4.33
2018-11-14T10:10:20.901Z,3.67
2018-11-14T10:12:49.016Z,3.53
2018-11-14T10:15:18.454Z,4.77
2018-11-14T10:17:47.186Z,3.60
2018-11-14T10:20:16.674Z,3.83
2018-11-14T10:22:45.223Z,3.60
2018-11-14T10:25:14.056Z,4.20
2018-11-14T10:27:42.988Z,4.03
2018-11-14T10:30:14.359Z,3.70
2018-11-14T10:32:43.488Z,3.87
2018-11-14T10:35:11.862Z,3.63
2018-11-14T10:37:40.246Z,4.50
2018-11-14T10:40:12.497Z,3.70
2018-11-14T10:42:41.019Z,4.50
2018-11-14T10:45:10.721Z,4.80
2018-11-14T10:47:38.896Z,6.10
2018-11-14T10:50:10.925Z,5.20
2018-11-14T10:52:39.337Z,4.87
2018-11-14T10:55:08.216Z,4.80
2018-11-14T10:57:36.797Z,5.77
2018-11-14T11:00:20.056Z,5.20
2018-11-14T11:02:53.895Z,4.67
2018-11-14T11:05:27.572Z,4.73
2018-11-14T11:08:06.709Z,5.83
2018-11-14T11:11:41.859Z,4.90
2018-11-14T11:14:16.343Z,5.80
2018-11-14T11:16:50.099Z,5.83
2018-11-14T11:19:19.555Z,5.83
2018-11-14T11:21:47.741Z,6.43
2018-11-14T11:24:17.217Z,6.40
2018-11-14T11:26:45.338Z,7.37
2018-11-14T11:29:13.630Z,6.90
2018-11-14T11:31:41.786Z,6.57
2018-11-14T11:34:10.642Z,6.57
2018-11-14T11:36:39.846Z,6.90
2018-11-14T11:39:11.720Z,6.80
2018-11-14T11:41:40.475Z,6.90
2018-11-14T11:44:08.963Z,7.10
2018-11-14T11:46:37.860Z,6.57
2018-11-14T11:49:06.785Z,7.30
2018-11-14T11:51:35.081Z,6.60
2018-11-14T11:54:05.324Z,7.73
2018-11-14T11:56:33.472Z,5.97
2018-11-14T11:59:03.808Z,6.57
2018-11-14T12:01:32.923Z,6.10
2018-11-14T12:06:34.603Z,5.40
2018-11-14T12:09:07.659Z,6.17
2018-11-14T12:11:35.832Z,5.40
2018-11-14T12:14:06.001Z,6.17
2018-11-14T12:16:34.145Z,7.03
2018-11-14T12:19:04.526Z,5.67
2018-11-14T12:21:32.625Z,5.33
2018-11-14T12:24:02.752Z,5.40
2018-11-14T12:26:30.892Z,4.67
2018-11-14T12:28:59.105Z,4.87
2018-11-14T12:31:28.157Z,4.97
2018-11-14T12:33:56.313Z,4.90
2018-11-14T12:36:24.501Z,4.47
2018-11-14T12:38:52.717Z,5.77
2018-11-14T12:41:20.816Z,6.20
2018-11-14T12:43:48.991Z,5.93
2018-11-14T12:46:17.137Z,5.80
2018-11-14T12:48:45.422Z,5.73
2018-11-14T12:51:13.631Z,5.97
2018-11-14T12:53:42.805Z,7.07
2018-11-14T12:56:10.985Z,7.97
2018-11-14T12:58:39.133Z,6.20
2018-11-14T13:01:07.263Z,5.73
2018-11-14T13:03:35.432Z,5.57
2018-11-14T13:06:06.766Z,4.57
2018-11-14T13:08:34.948Z,6.70
2018-11-14T13:11:05.140Z,7.00
2018-11-14T13:13:38.669Z,6.10
2018-11-14T13:16:07.193Z,5.60
2018-11-14T13:18:35.409Z,5.07
2018-11-14T13:21:08.968Z,5.80
2018-11-14T13:23:37.129Z,5.70
2018-11-14T13:26:06.052Z,4.33
2018-11-14T13:28:34.241Z,6.03
2018-11-14T13:31:03.425Z,4.93
2018-11-14T13:33:31.933Z,4.40
2018-11-14T13:36:00.078Z,4.37
2018-11-14T13:38:28.265Z,4.53
2018-11-14T13:40:56.433Z,4.53
2018-11-14T13:43:24.576Z,4.90
2018-11-14T13:45:52.740Z,4.90
2018-11-14T13:48:20.929Z,4.83
2018-11-14T13:50:49.340Z,4.33
2018-11-14T13:53:17.373Z,4.67
2018-11-14T13:55:45.515Z,4.87
2018-11-14T13:58:13.701Z,5.40
2018-11-14T14:00:41.873Z,4.93
2018-11-14T14:03:10.044Z,4.40
2018-11-14T14:05:38.241Z,4.70
2018-11-14T14:08:06.465Z,5.63
2018-11-14T14:10:34.625Z,4.37
2018-11-14T14:13:06.097Z,5.60
2018-11-14T14:15:34.277Z,5.20
2018-11-14T14:18:05.292Z,5.20
2018-11-14T14:20:34.350Z,4.37
2018-11-14T14:23:04.273Z,4.07
2018-11-14T14:25:32.805Z,4.03
2018-11-14T14:28:03.691Z,7.13
2018-11-14T14:30:33.300Z,4.20
2018-11-14T14:33:06.189Z,4.27
2018-11-14T14:35:34.335Z,4.70
2018-11-14T14:38:05.990Z,4.90
2018-11-14T14:40:34.111Z,4.77
2018-11-14T14:43:04.950Z,5.00
2018-11-14T14:45:33.101Z,5.80
2018-11-14T14:48:04.642Z,4.43
2018-11-14T14:50:32.777Z,4.70
2018-11-14T14:53:04.880Z,5.27
2018-11-14T14:55:33.094Z,5.87
2018-11-14T14:58:01.965Z,5.57
2018-11-14T15:00:30.120Z,4.93
2018-11-14T15:02:58.957Z,5.67
2018-11-14T15:05:27.117Z,6.23
2018-11-14T15:07:55.260Z,5.67
2018-11-14T15:10:24.793Z,5.47
2018-11-14T15:12:52.957Z,6.23
2018-11-14T15:15:21.507Z,5.53
2018-11-14T15:17:49.608Z,7.93
2018-11-14T15:20:19.861Z,6.30
2018-11-14T15:22:48.074Z,6.90
2018-11-14T15:25:18.541Z,6.93
2018-11-14T15:27:47.247Z,6.90
2018-11-14T15:30:23.917Z,7.17
2018-11-14T15:32:52.066Z,6.83
2018-11-14T15:35:20.310Z,7.03
2018-11-14T15:37:48.404Z,7.17
2018-11-14T15:40:17.717Z,8.33
2018-11-14T15:42:46.059Z,9.43
2018-11-14T15:45:24.189Z,9.60
2018-11-14T15:47:52.337Z,10.93
2018-11-14T15:50:21.897Z,13.10
2018-11-14T15:52:50.985Z,10.90
2018-11-14T15:55:19.890Z,13.43
2018-11-14T15:57:48.373Z,12.13
2018-11-14T16:00:26.576Z,12.63
2018-11-14T16:02:56.293Z,14.53
2018-11-14T16:05:27.191Z,13.47
2018-11-14T16:07:57.796Z,14.40
2018-11-14T16:10:26.836Z,14.00
2018-11-14T16:13:05.880Z,15.53
2018-11-14T16:15:36.666Z,14.50
2018-11-14T16:18:09.987Z,13.77
2018-11-14T16:20:41.271Z,13.10
2018-11-14T16:23:14.376Z,12.07
2018-11-14T16:25:43.673Z,14.47
2018-11-14T16:28:13.106Z,15.60
2018-11-14T16:30:43.997Z,16.63
2018-11-14T16:33:12.477Z,14.70
2018-11-14T16:35:43.877Z,14.50
2018-11-14T16:38:12.776Z,16.23
2018-11-14T16:40:42.368Z,16.87
2018-11-14T16:43:14.572Z,15.93
2018-11-14T16:45:43.957Z,16.10
2018-11-14T16:48:22.671Z,15.40
2018-11-14T16:50:57.085Z,14.23
2018-11-14T16:53:25.312Z,12.77
2018-11-14T16:55:57.770Z,12.10
2018-11-14T16:58:28.857Z,10.00
2018-11-14T17:00:58.749Z,9.80
2018-11-14T17:03:29.367Z,10.90
2018-11-14T17:05:59.402Z,12.17
2018-11-14T17:08:30.909Z,12.87
2018-11-14T17:11:04.898Z,11.57
2018-11-14T17:13:34.921Z,11.27
2018-11-14T17:16:05.034Z,14.57
2018-11-14T17:18:38.514Z,14.53
2018-11-14T17:21:10.907Z,15.17
2018-11-14T17:23:42.089Z,13.93
2018-11-14T17:26:12.650Z,14.47
2018-11-14T17:28:44.847Z,16.20
2018-11-14T17:31:13.073Z,15.50
2018-11-14T17:33:42.021Z,14.70
2018-11-14T17:36:11.769Z,14.50
2018-11-14T17:38:41.744Z,15.47
2018-11-14T17:41:11.413Z,15.20
2018-11-14T17:43:43.316Z,15.23
2018-11-14T17:46:16.968Z,14.20
2018-11-14T17:48:48.105Z,15.43
2018-11-14T17:51:18.757Z,14.83
2018-11-14T17:53:47.582Z,15.57
2018-11-14T17:56:17.068Z,13.47
2018-11-14T17:58:48.161Z,13.67
2018-11-14T18:01:18.014Z,15.40
2018-11-14T18:03:52.381Z,14.10
2018-11-14T18:06:22.584Z,14.73
2018-11-14T18:08:51.720Z,15.87
2018-11-14T18:11:20.881Z,15.53
2018-11-14T18:13:50.368Z,14.63
2018-11-14T18:16:19.874Z,8.90
2018-11-14T18:18:48.937Z,14.50
2018-11-14T18:21:17.816Z,12.40
2018-11-14T18:23:48.249Z,14.73
2018-11-14T18:26:20.973Z,17.03
2018-11-14T18:28:49.221Z,17.53
2018-11-14T18:31:20.527Z,12.27
2018-11-14T18:33:50.688Z,17.87
2018-11-14T18:36:19.824Z,20.23
2018-11-14T18:38:48.241Z,18.13
2018-11-14T18:41:19.230Z,16.77
2018-11-14T18:43:50.495Z,18.00
2018-11-14T18:46:18.999Z,18.93
2018-11-14T18:48:49.405Z,19.17
2018-11-14T18:51:19.640Z,17.73
2018-11-14T18:53:48.889Z,17.27
2018-11-14T18:56:18.074Z,12.27
2018-11-14T18:58:47.610Z,19.30
2018-11-14T19:01:17.982Z,18.90
2018-11-14T19:03:46.817Z,24.80
2018-11-14T19:06:16.118Z,19.67
2018-11-14T19:08:47.164Z,17.47
2018-11-14T19:11:18.132Z,18.87
2018-11-14T19:13:47.636Z,24.60
2018-11-14T19:16:18.957Z,21.80
2018-11-14T19:18:48.544Z,19.07
2018-11-14T19:21:18.165Z,20.40
2018-11-14T19:23:46.637Z,19.27
2018-11-14T19:26:15.741Z,24.37
2018-11-14T19:28:46.565Z,22.33
2018-11-14T19:31:15.345Z,21.70
2018-11-14T19:33:44.461Z,20.63
2018-11-14T19:36:16.122Z,22.70
2018-11-14T19:38:45.525Z,20.47
2018-11-14T19:41:18.440Z,20.40
2018-11-14T19:43:47.720Z,21.30
2018-11-14T19:46:20.701Z,22.40
2018-11-14T19:48:49.724Z,21.77
2018-11-14T19:51:21.766Z,22.33
2018-11-14T19:53:51.668Z,21.30
2018-11-14T19:56:21.326Z,22.97
2018-11-14T19:58:51.943Z,22.30
2018-11-14T20:01:21.548Z,23.70
2018-11-14T20:03:50.580Z,26.30
2018-11-14T20:06:19.350Z,23.17
2018-11-14T20:08:49.516Z,25.73
2018-11-14T20:11:21.301Z,23.77
2018-11-14T20:13:49.555Z,24.30
2018-11-14T20:16:19.733Z,21.67
2018-11-14T20:18:51.016Z,22.07
2018-11-14T20:21:19.230Z,22.47
2018-11-14T20:23:49.019Z,23.97
2018-11-14T20:26:18.961Z,24.10
2018-11-14T20:28:55.182Z,20.27
2018-11-14T20:31:24.808Z,22.47
2018-11-14T20:33:56.668Z,25.23
2018-11-14T20:36:29.332Z,21.93
2018-11-14T20:38:59.475Z,23.33
2018-11-14T20:41:30.401Z,21.13
2018-11-14T20:44:01.309Z,20.30
2018-11-14T20:46:34.182Z,21.30
2018-11-14T20:49:06.996Z,19.60
2018-11-14T20:51:35.520Z,19.43
2018-11-14T20:54:09.178Z,22.53
2018-11-14T20:56:37.996Z,23.27
2018-11-14T20:59:06.548Z,22.03
2018-11-14T21:01:36.012Z,22.40
2018-11-14T21:04:09.308Z,22.00
2018-11-14T21:06:39.357Z,21.70
2018-11-14T21:09:11.333Z,22.60
2018-11-14T21:11:39.472Z,21.30
2018-11-14T21:14:08.595Z,19.03
2018-11-14T21:16:38.408Z,22.00
2018-11-14T21:19:08.160Z,20.73
2018-11-14T21:21:39.716Z,22.33
2018-11-14T21:24:09.909Z,21.50
2018-11-14T21:26:38.667Z,22.20
2018-11-14T21:29:10.850Z,23.30
2018-11-14T21:31:39.024Z,21.83
2018-11-14T21:34:08.376Z,21.03
2018-11-14T21:36:38.881Z,21.73
2018-11-14T21:39:10.094Z,20.20
2018-11-14T21:41:39.441Z,20.87
2018-11-14T21:44:08.660Z,22.80
2018-11-14T21:46:38.433Z,22.43
2018-11-14T21:49:14.492Z,20.50
2018-11-14T21:51:45.530Z,20.60
2018-11-14T21:54:15.138Z,19.23
2018-11-14T21:56:45.743Z,18.07
2018-11-14T21:59:16.237Z,20.20
2018-11-14T22:01:46.633Z,22.40
2018-11-14T22:04:21.744Z,21.60
2018-11-14T22:06:49.916Z,21.23
2018-11-14T22:09:19.310Z,18.80
2018-11-14T22:11:48.371Z,21.17
2018-11-14T22:14:17.865Z,19.53
2018-11-14T22:16:55.402Z,21.10
2018-11-14T22:19:23.657Z,21.80
2018-11-14T22:21:55.107Z,22.40
2018-11-14T22:24:26.481Z,21.33
2018-11-14T22:26:59.062Z,19.73
2018-11-14T22:29:28.312Z,21.80
2018-11-14T22:31:59.317Z,17.67
2018-11-14T22:34:28.729Z,19.63
2018-11-14T22:39:36.664Z,20.33
2018-11-14T22:42:10.865Z,19.70
2018-11-14T22:44:43.048Z,21.73
2018-11-14T22:47:16.745Z,21.53
2018-11-14T22:49:46.661Z,21.93
2018-11-14T22:52:16.273Z,22.63
2018-11-14T22:54:46.271Z,20.60
2018-11-14T22:57:16.912Z,20.03
2018-11-14T22:59:46.688Z,23.23
2018-11-14T23:02:14.856Z,21.63
2018-11-14T23:04:44.289Z,21.27
2018-11-14T23:07:13.200Z,20.57
2018-11-14T23:09:43.278Z,19.80
2018-11-14T23:12:15.102Z,15.10
2018-11-14T23:14:43.937Z,18.80
2018-11-14T23:17:14.329Z,21.60
2018-11-14T23:19:46.620Z,20.50
2018-11-14T23:22:16.400Z,20.30
2018-11-14T23:24:55.703Z,22.30
2018-11-14T23:27:24.872Z,20.73
2018-11-14T23:29:53.825Z,18.53
2018-11-14T23:32:27.546Z,21.63
2018-11-14T23:35:05.663Z,21.70
2018-11-14T23:37:35.761Z,20.47
2018-11-14T23:40:08.713Z,19.90
2018-11-14T23:42:39.076Z,21.97
2018-11-14T23:45:11.276Z,18.60
2018-11-14T23:47:44.039Z,17.03
2018-11-14T23:50:18.988Z,19.10
2018-11-14T23:52:48.634Z,18.83
2018-11-14T23:55:22.064Z,16.67
2018-11-14T23:57:52.197Z,20.47
